Time;durP1;ratioP1;P1;durP2;ratioP2;P2;SDS_P1;SDS_P2;PMS_P1;PMS_P2;Temp;Humidity;BMP_temperature;BMP_pressure;BME280_temperature;BME280_humidity;BME280_pressure;Samples;Min_cycle;Max_cycle;Signal;HPM_P1;HPM_P2
2023/07/09 00:02:08;;;;;;;8.63;3.50;;;;;;;18.15;100.00;101495.28;7393421;19;20415;-37
2023/07/09 00:04:38;;;;;;;7.27;3.57;;;;;;;18.15;100.00;101513.56;7371656;19;20446;-37
2023/07/09 00:07:17;;;;;;;7.53;3.30;;;;;;;18.13;100.00;101526.56;7393334;19;20420;-37
2023/07/09 00:09:47;;;;;;;10.27;4.00;;;;;;;18.15;100.00;101527.47;7373608;19;20423;-37
2023/07/09 00:12:18;;;;;;;7.87;4.40;;;;;;;18.13;100.00;101536.13;7393765;19;20415;-39
2023/07/09 00:14:47;;;;;;;9.90;4.27;;;;;;;18.07;100.00;101539.50;7372544;19;20929;-37
2023/07/09 00:17:25;;;;;;;7.43;3.23;;;;;;;18.04;100.00;101537.66;7394532;19;21010;-37
2023/07/09 00:19:55;;;;;;;6.77;3.03;;;;;;;18.01;100.00;101537.59;7372015;19;20880;-37
2023/07/09 00:22:27;;;;;;;6.73;2.97;;;;;;;18.01;100.00;101542.81;7393634;19;20432;-38
2023/07/09 00:24:58;;;;;;;6.07;2.90;;;;;;;18.02;100.00;101555.03;7371761;19;20414;-37
2023/07/09 00:27:31;;;;;;;7.20;3.67;;;;;;;18.04;100.00;101552.44;7395754;19;20433;-37
2023/07/09 00:30:00;;;;;;;6.60;3.03;;;;;;;18.04;100.00;101557.66;7371948;19;20794;-38
2023/07/09 00:32:30;;;;;;;9.50;3.70;;;;;;;18.02;100.00;101560.25;7396167;19;20404;-37
2023/07/09 00:35:00;;;;;;;5.80;3.13;;;;;;;17.99;100.00;101567.97;7372241;19;20427;-37
2023/07/09 00:37:32;;;;;;;9.10;3.67;;;;;;;18.00;100.00;101566.28;7395062;19;20416;-37
2023/07/09 00:40:01;;;;;;;7.37;3.90;;;;;;;18.00;100.00;101564.53;7370385;19;20427;-37
2023/07/09 00:42:31;;;;;;;7.90;3.00;;;;;;;17.98;100.00;101573.16;7393193;19;20973;-37
2023/07/09 00:45:01;;;;;;;6.37;2.63;;;;;;;17.98;100.00;101578.38;7372076;19;20973;-37
2023/07/09 00:47:47;;;;;;;7.20;2.70;;;;;;;17.93;100.00;101587.00;7394620;19;20424;-37
2023/07/09 00:50:27;;;;;;;6.80;3.50;;;;;;;17.93;100.00;101581.78;7369867;19;20435;-37
2023/07/09 00:53:05;;;;;;;8.00;4.27;;;;;;;17.91;100.00;101573.03;7395109;19;20432;-37
2023/07/09 00:55:37;;;;;;;7.30;3.30;;;;;;;17.90;100.00;101571.25;7370794;19;20530;-36
2023/07/09 00:58:09;;;;;;;7.33;3.40;;;;;;;17.93;100.00;101576.56;7394298;19;20425;-37
2023/07/09 01:00:46;;;;;;;5.70;2.93;;;;;;;17.89;100.00;101582.53;7371209;19;20494;-37
2023/07/09 01:03:22;;;;;;;9.07;3.83;;;;;;;17.87;100.00;101568.59;7393112;19;20791;-38
2023/07/09 01:05:55;;;;;;;6.20;3.80;;;;;;;17.88;100.00;101572.97;7369857;19;20447;-37
2023/07/09 01:08:30;;;;;;;6.20;3.10;;;;;;;17.83;100.00;101579.78;7395134;19;20415;-37
2023/07/09 01:11:00;;;;;;;5.80;2.77;;;;;;;17.83;100.00;101578.91;7370876;19;20443;-38
2023/07/09 01:13:32;;;;;;;8.20;3.40;;;;;;;17.85;100.00;101578.13;7396403;19;20408;-36
2023/07/09 01:16:01;;;;;;;5.30;3.00;;;;;;;17.85;100.00;101578.13;7371021;19;20435;-37
2023/07/09 01:18:32;;;;;;;7.90;3.47;;;;;;;17.78;100.00;101576.16;7394849;19;20411;-37
2023/07/09 01:21:05;;;;;;;7.17;3.20;;;;;;;17.75;100.00;101576.09;7369906;19;20431;-37
2023/07/09 01:23:34;;;;;;;6.37;3.43;;;;;;;17.78;100.00;101576.16;7395072;19;20490;-37
2023/07/09 01:26:04;;;;;;;4.97;3.20;;;;;;;17.71;100.00;101574.25;7370315;19;21040;-37
2023/07/09 01:28:34;;;;;;;8.00;3.80;;;;;;;17.67;100.00;101576.81;7394755;19;20780;-37
2023/07/09 01:31:04;;;;;;;9.43;3.27;;;;;;;17.65;100.00;101568.03;7370303;19;20426;-37
2023/07/09 01:33:34;;;;;;;6.07;3.00;;;;;;;17.64;100.00;101573.25;7394205;19;20482;-37
2023/07/09 01:36:07;;;;;;;8.30;3.47;;;;;;;17.60;100.00;101574.00;7370160;19;20431;-37
2023/07/09 01:38:36;;;;;;;8.87;2.93;;;;;;;17.56;100.00;101573.03;7393558;19;20418;-37
2023/07/09 01:41:06;;;;;;;6.23;3.20;;;;;;;17.55;100.00;101579.09;7368077;19;20446;-37
2023/07/09 01:43:36;;;;;;;6.77;3.03;;;;;;;17.49;100.00;101585.03;7392926;19;20437;-36
2023/07/09 01:46:07;;;;;;;5.50;3.03;;;;;;;17.46;100.00;101582.34;7369084;19;20567;-36
2023/07/09 01:48:40;;;;;;;6.80;3.17;;;;;;;17.45;100.00;101582.28;7393559;19;20951;-37
2023/07/09 01:51:16;;;;;;;6.17;2.83;;;;;;;17.41;100.00;101577.00;7367680;19;20958;-37
2023/07/09 01:53:46;;;;;;;5.73;2.93;;;;;;;17.41;100.00;101569.19;7399342;19;20427;-37
2023/07/09 01:56:16;;;;;;;5.20;2.73;;;;;;;17.40;100.00;101570.00;7373912;19;20427;-37
2023/07/09 01:58:46;;;;;;;5.90;2.60;;;;;;;17.40;100.00;101575.22;7400879;19;20428;-37
2023/07/09 02:01:16;;;;;;;4.80;2.67;;;;;;;17.39;100.00;101577.81;7375447;19;20469;-36
2023/07/09 02:03:46;;;;;;;7.80;3.20;;;;;;;17.37;100.00;101576.88;7399024;19;20435;-36
2023/07/09 02:06:19;;;;;;;6.03;3.07;;;;;;;17.36;100.00;101573.41;7374179;19;20419;-36
2023/07/09 02:08:49;;;;;;;5.37;2.60;;;;;;;17.33;100.00;101575.91;7398844;19;20411;-36
2023/07/09 02:11:19;;;;;;;6.37;3.07;;;;;;;17.39;100.00;101570.84;7376045;19;20427;-36
2023/07/09 02:13:49;;;;;;;6.30;3.13;;;;;;;17.38;100.00;101576.06;7398132;19;20479;-37
2023/07/09 02:16:18;;;;;;;6.10;3.10;;;;;;;17.31;100.00;101577.59;7375093;19;20532;-36
2023/07/09 02:18:49;;;;;;;10.07;3.00;;;;;;;17.27;100.00;101575.75;7400544;19;20422;-36
2023/07/09 02:21:21;;;;;;;8.60;4.10;;;;;;;17.24;100.00;101573.06;7375214;19;20777;-36
2023/07/09 02:23:51;;;;;;;10.03;4.70;;;;;;;17.24;100.00;101568.72;7399325;19;20427;-37
2023/07/09 02:26:20;;;;;;;9.17;3.67;;;;;;;17.26;100.00;101566.16;7375733;19;20446;-36
2023/07/09 02:28:50;;;;;;;6.93;3.33;;;;;;;17.20;100.00;101566.88;7399575;19;20957;-36
2023/07/09 02:31:19;;;;;;;8.30;4.00;;;;;;;17.19;100.00;101566.84;7374459;19;20530;-36
2023/07/09 02:33:50;;;;;;;5.57;2.80;;;;;;;17.13;100.00;101570.16;7397944;19;20490;-36
2023/07/09 02:36:22;;;;;;;5.83;3.40;;;;;;;17.12;100.00;101564.06;7374380;19;20478;-36
2023/07/09 02:38:52;;;;;;;6.30;3.10;;;;;;;17.09;100.00;101574.41;7398655;19;20407;-36
2023/07/09 02:41:21;;;;;;;6.37;2.93;;;;;;;17.00;100.00;101576.72;7374251;19;20996;-36
2023/07/09 02:43:51;;;;;;;5.40;3.10;;;;;;;17.03;100.00;101573.34;7397498;19;20491;-36
2023/07/09 02:46:21;;;;;;;10.90;4.77;;;;;;;17.00;100.00;101574.13;7374183;19;20947;-35
2023/07/09 02:48:50;;;;;;;8.30;3.57;;;;;;;16.99;100.00;101574.97;7398263;19;20959;-36
2023/07/09 02:51:22;;;;;;;7.23;3.60;;;;;;;17.01;100.00;101579.38;7374376;19;20443;-36
2023/07/09 02:53:52;;;;;;;6.50;2.83;;;;;;;16.94;100.00;101577.44;7398814;19;20467;-36
2023/07/09 02:56:22;;;;;;;9.20;3.50;;;;;;;16.93;100.00;101577.38;7373829;19;20470;-36
2023/07/09 02:58:55;;;;;;;5.10;2.73;;;;;;;16.91;100.00;101574.72;7399048;19;20761;-36
2023/07/09 03:01:26;;;;;;;8.50;3.33;;;;;;;16.86;100.00;101576.31;7373125;19;20438;-36
2023/07/09 03:03:57;;;;;;;6.07;2.80;;;;;;;16.86;100.00;101579.81;7396543;19;21030;-36
2023/07/09 03:06:30;;;;;;;7.97;2.70;;;;;;;16.86;100.00;101581.53;7373346;19;20550;-36
2023/07/09 03:08:59;;;;;;;6.20;3.50;;;;;;;16.85;100.00;101575.44;7398009;19;20404;-37
2023/07/09 03:11:31;;;;;;;7.10;2.80;;;;;;;16.83;100.00;101578.84;7374035;19;20431;-36
2023/07/09 03:14:01;;;;;;;9.27;4.70;;;;;;;16.82;100.00;101575.34;7397504;19;20412;-36
2023/07/09 03:16:33;;;;;;;8.23;3.53;;;;;;;16.79;100.00;101582.19;7373977;19;20506;-36
2023/07/09 03:19:03;;;;;;;6.70;3.40;;;;;;;16.80;100.00;101584.84;7398811;19;20411;-36
2023/07/09 03:21:35;;;;;;;7.50;3.87;;;;;;;16.81;100.00;101586.63;7373538;19;20522;-36
2023/07/09 03:24:07;;;;;;;7.30;3.93;;;;;;;16.81;100.00;101594.44;7399353;19;20404;-36
2023/07/09 03:26:36;;;;;;;6.10;3.40;;;;;;;16.80;100.00;101591.78;7373773;19;20431;-36
2023/07/09 03:29:06;;;;;;;6.63;3.27;;;;;;;16.82;100.00;101588.38;7396464;19;20479;-35
2023/07/09 03:31:36;;;;;;;190.30;111.03;;;;;;;16.85;100.00;101585.88;7373002;19;20859;-36
2023/07/09 03:34:06;;;;;;;12.30;5.20;;;;;;;16.82;100.00;101587.50;7395146;19;20748;-35
2023/07/09 03:36:39;;;;;;;8.10;4.60;;;;;;;16.81;100.00;101594.44;7373227;19;20427;-36
2023/07/09 03:39:09;;;;;;;8.30;4.77;;;;;;;16.80;100.00;101599.59;7396161;19;20904;-38
2023/07/09 03:41:39;;;;;;;9.13;4.00;;;;;;;16.82;100.00;101596.19;7372596;19;20427;-36
2023/07/09 03:44:09;;;;;;;7.10;4.00;;;;;;;16.83;100.00;101597.97;7394744;19;20949;-36
2023/07/09 03:46:38;;;;;;;6.43;3.53;;;;;;;16.85;100.00;101601.50;7372957;19;20462;-36
2023/07/09 03:49:08;;;;;;;7.60;3.80;;;;;;;16.86;100.00;101608.47;7397695;19;20417;-36
2023/07/09 03:51:40;;;;;;;10.00;4.80;;;;;;;16.88;100.00;101598.13;7373374;19;20522;-41
2023/07/09 03:54:10;;;;;;;7.80;3.43;;;;;;;16.86;100.00;101613.69;7395504;19;20419;-36
2023/07/09 03:56:39;;;;;;;9.50;4.20;;;;;;;16.92;100.00;101610.38;7372513;19;21081;-36
2023/07/09 03:59:09;;;;;;;6.67;3.10;;;;;;;16.92;100.00;101612.13;7396758;19;20491;-36
2023/07/09 04:01:39;;;;;;;7.80;4.00;;;;;;;16.98;100.00;101607.94;7372348;19;20451;-36
2023/07/09 04:04:09;;;;;;;5.70;3.20;;;;;;;16.97;100.00;101610.53;7396050;19;20431;-35
2023/07/09 04:06:41;;;;;;;8.10;4.00;;;;;;;16.98;100.00;101607.09;7372421;19;20426;-36
2023/07/09 04:09:10;;;;;;;9.00;4.80;;;;;;;17.00;100.00;101608.00;7395875;19;20503;-36
2023/07/09 04:11:40;;;;;;;8.43;3.87;;;;;;;17.01;100.00;101602.84;7371962;19;20470;-36
2023/07/09 04:14:10;;;;;;;8.07;3.43;;;;;;;17.02;100.00;101601.13;7393693;19;20415;-36
2023/07/09 04:16:40;;;;;;;7.07;3.70;;;;;;;16.99;100.00;101601.88;7371650;19;20459;-36
2023/07/09 04:19:09;;;;;;;6.40;3.23;;;;;;;17.05;100.00;101601.22;7394980;19;20415;-36
2023/07/09 04:21:42;;;;;;;6.73;3.23;;;;;;;17.07;100.00;101609.97;7371797;19;20447;-36
2023/07/09 04:24:11;;;;;;;7.23;3.30;;;;;;;17.05;100.00;101602.94;7393907;19;21306;-37
2023/07/09 04:26:41;;;;;;;8.00;3.40;;;;;;;17.07;100.00;101599.53;7371407;19;20900;-36
2023/07/09 04:29:11;;;;;;;7.60;3.13;;;;;;;17.08;100.00;101598.69;7389422;19;20451;-36
2023/07/09 04:31:41;;;;;;;6.97;3.40;;;;;;;17.09;100.00;101592.66;7371156;19;20502;-35
2023/07/09 04:34:10;;;;;;;6.33;3.43;;;;;;;17.10;100.00;101594.44;7393656;19;20424;-36
2023/07/09 04:36:43;;;;;;;6.50;2.83;;;;;;;17.08;100.00;101595.22;7370204;19;20519;-36
2023/07/09 04:39:12;;;;;;;5.83;3.27;;;;;;;17.04;100.00;101583.81;7393639;19;20486;-36
2023/07/09 04:41:42;;;;;;;5.43;2.70;;;;;;;17.06;100.00;101605.59;7370464;19;20447;-36
2023/07/09 04:44:11;;;;;;;7.00;3.37;;;;;;;17.10;100.00;101602.25;7394425;19;20441;-36
2023/07/09 04:46:41;;;;;;;7.73;3.40;;;;;;;17.14;100.00;101601.47;7370668;19;20963;-36
2023/07/09 04:49:12;;;;;;;8.43;3.80;;;;;;;17.12;100.00;101602.28;7393976;19;21076;-35
2023/07/09 04:51:44;;;;;;;5.97;3.20;;;;;;;17.16;100.00;101603.28;7370524;19;20793;-36
2023/07/09 04:54:14;;;;;;;6.20;3.30;;;;;;;17.15;100.00;101610.19;7393408;19;20423;-36
2023/07/09 04:56:45;;;;;;;7.60;3.67;;;;;;;17.20;100.00;101607.72;7370491;19;20455;-36
2023/07/09 04:59:15;;;;;;;5.73;3.10;;;;;;;17.27;100.00;101604.41;7396006;19;20407;-37
2023/07/09 05:01:44;;;;;;;8.73;3.73;;;;;;;17.33;100.00;101609.81;7369815;19;20427;-36
2023/07/09 05:04:14;;;;;;;7.20;3.50;;;;;;;17.38;100.00;101596.91;7393131;19;20495;-36
2023/07/09 05:06:46;;;;;;;8.00;3.10;;;;;;;17.44;100.00;101596.19;7370492;19;20599;-36
2023/07/09 05:09:15;;;;;;;7.33;3.93;;;;;;;17.49;100.00;101597.19;7394622;19;20808;-37
2023/07/09 05:11:45;;;;;;;6.93;3.80;;;;;;;17.49;100.00;101598.06;7369487;19;20506;-36
2023/07/09 05:14:15;;;;;;;7.80;4.30;;;;;;;17.54;100.00;101606.03;7393010;19;20427;-36
2023/07/09 05:16:45;;;;;;;7.63;3.73;;;;;;;17.58;100.00;101610.47;7370128;19;20844;-35
2023/07/09 05:19:15;;;;;;;6.90;3.23;;;;;;;17.62;100.00;101608.81;7391249;19;20411;-35
2023/07/09 05:21:47;;;;;;;7.50;3.90;;;;;;;17.65;100.00;101607.16;7365959;19;20444;-36
2023/07/09 05:24:17;;;;;;;7.97;3.13;;;;;;;17.73;100.00;101611.72;7394696;19;20530;-36
2023/07/09 05:26:46;;;;;;;5.30;2.90;;;;;;;17.80;100.00;101616.25;7369732;19;20439;-36
2023/07/09 05:29:16;;;;;;;6.83;3.60;;;;;;;17.87;100.00;101628.63;7393545;19;20491;-36
2023/07/09 05:31:45;;;;;;;7.30;3.50;;;;;;;17.92;100.00;101629.63;7369866;19;20467;-37
2023/07/09 05:34:15;;;;;;;9.60;5.00;;;;;;;18.00;100.00;101623.72;7394278;19;20855;-36
2023/07/09 05:36:47;;;;;;;6.80;3.80;;;;;;;18.07;100.00;101616.09;7370623;19;20479;-36
2023/07/09 05:39:17;;;;;;;6.07;2.93;;;;;;;18.12;100.00;101618.81;7395751;19;20490;-37
2023/07/09 05:41:47;;;;;;;7.67;3.70;;;;;;;18.21;100.00;101612.94;7369191;19;21002;-36
2023/07/09 05:44:17;;;;;;;7.03;4.13;;;;;;;18.27;100.00;101617.41;7393099;19;20415;-36
2023/07/09 05:46:46;;;;;;;9.83;3.93;;;;;;;18.34;100.00;101607.16;7368977;19;20447;-36
2023/07/09 05:49:16;;;;;;;7.10;3.23;;;;;;;18.43;100.00;101609.09;7392410;19;20403;-37
2023/07/09 05:51:48;;;;;;;7.57;3.47;;;;;;;18.49;100.00;101604.00;7370245;19;20431;-35
2023/07/09 05:54:18;;;;;;;18.70;8.03;;;;;;;18.57;100.00;101598.06;7391856;19;20432;-36
2023/07/09 05:56:48;;;;;;;102.23;57.90;;;;;;;18.66;100.00;101600.88;7370463;19;20427;-36
2023/07/09 05:59:17;;;;;;;10.17;5.07;;;;;;;18.71;100.00;101593.16;7395450;19;20414;-37
2023/07/09 06:01:47;;;;;;;6.97;4.00;;;;;;;18.82;100.00;101606.44;7366686;19;20463;-36
2023/07/09 06:04:16;;;;;;;12.83;5.40;;;;;;;18.87;100.00;101595.22;7391779;19;20438;-36
2023/07/09 06:06:48;;;;;;;6.87;3.60;;;;;;;18.89;100.00;101601.38;7370068;19;20482;-37
2023/07/09 06:09:18;;;;;;;10.03;4.23;;;;;;;18.99;100.00;101599.81;7393031;19;20411;-36
2023/07/09 06:11:47;;;;;;;10.27;5.50;;;;;;;19.09;100.00;101584.34;7368789;19;20427;-36
2023/07/09 06:14:18;;;;;;;8.93;5.37;;;;;;;19.18;100.00;101594.09;7391836;19;20530;-36
2023/07/09 06:16:48;;;;;;;7.70;4.60;;;;;;;19.24;100.00;101579.41;7369066;19;20437;-36
2023/07/09 06:19:17;;;;;;;5.60;3.07;;;;;;;19.35;100.00;101586.56;7392227;19;20494;-36
2023/07/09 06:21:49;;;;;;;14.43;6.27;;;;;;;19.41;100.00;101586.69;7366428;19;20455;-36
2023/07/09 06:24:19;;;;;;;9.13;3.80;;;;;;;19.48;100.00;101582.44;7392085;19;20428;-35
2023/07/09 06:26:48;;;;;;;9.33;5.70;;;;;;;19.60;100.00;101579.16;7369088;19;20430;-36
2023/07/09 06:29:18;;;;;;;9.27;4.20;;;;;;;19.65;100.00;101581.00;7391358;19;20427;-36
2023/07/09 06:31:48;;;;;;;6.53;4.03;;;;;;;19.72;100.00;101591.56;7367679;19;20454;-35
2023/07/09 06:34:17;;;;;;;10.37;4.80;;;;;;;19.79;100.00;101586.47;7391078;19;20427;-36
2023/07/09 06:36:49;;;;;;;7.07;3.40;;;;;;;19.89;100.00;101584.88;7367161;19;21005;-36
2023/07/09 06:39:20;;;;;;;6.90;3.77;;;;;;;19.98;100.00;101578.94;7392776;19;20408;-36
2023/07/09 06:41:50;;;;;;;7.83;3.60;;;;;;;20.06;100.00;101576.44;7373180;19;20810;-35
2023/07/09 06:44:20;;;;;;;6.63;3.80;;;;;;;20.14;100.00;101595.78;7397570;19;20423;-36
2023/07/09 06:46:49;;;;;;;6.70;3.50;;;;;;;20.19;100.00;101583.63;7375638;19;20549;-35
2023/07/09 06:49:19;;;;;;;7.00;3.47;;;;;;;20.27;100.00;101583.75;7398343;19;21007;-36
2023/07/09 06:51:51;;;;;;;10.13;5.50;;;;;;;20.36;100.00;101586.50;7372797;19;20461;-35
2023/07/09 06:54:21;;;;;;;13.73;8.10;;;;;;;20.46;100.00;101582.25;7397788;19;20446;-36
2023/07/09 06:56:51;;;;;;;11.37;6.33;;;;;;;20.56;100.00;101582.41;7375952;19;20437;-36
2023/07/09 06:59:20;;;;;;;11.30;4.47;;;;;;;20.61;100.00;101584.19;7400559;19;20415;-35
2023/07/09 07:01:50;;;;;;;7.20;3.03;;;;;;;20.71;100.00;101582.56;7373026;19;20902;-36
2023/07/09 07:04:19;;;;;;;7.27;3.50;;;;;;;20.80;100.00;101575.72;7400058;19;20466;-36
2023/07/09 07:06:52;;;;;;;9.13;3.90;;;;;;;20.87;100.00;101574.94;7370234;19;20879;-35
2023/07/09 07:09:21;;;;;;;7.53;3.80;;;;;;;20.97;100.00;101573.31;7397861;19;21014;-36
2023/07/09 07:11:51;;;;;;;8.77;4.83;;;;;;;21.04;100.00;101564.66;7372441;19;21022;-36
2023/07/09 07:14:21;;;;;;;8.97;3.70;;;;;;;21.15;100.00;101563.03;7397912;19;20518;-36
2023/07/09 07:16:51;;;;;;;9.43;4.67;;;;;;;21.25;100.00;101565.72;7373890;19;20454;-36
2023/07/09 07:19:20;;;;;;;9.10;4.40;;;;;;;21.31;100.00;101568.41;7400016;19;20412;-37
2023/07/09 07:21:53;;;;;;;8.33;4.13;;;;;;;21.41;100.00;101567.66;7371004;19;20450;-35
2023/07/09 07:24:22;;;;;;;7.13;4.10;;;;;;;21.50;100.00;101574.72;7396119;19;20486;-36
2023/07/09 07:26:52;;;;;;;8.87;3.47;;;;;;;21.60;100.00;101575.69;7375652;19;20974;-35
2023/07/09 07:29:21;;;;;;;9.03;4.37;;;;;;;21.71;100.00;101568.81;7397649;19;20408;-37
2023/07/09 07:31:51;;;;;;;13.90;7.07;;;;;;;21.75;100.00;101571.47;7374776;19;20437;-36
2023/07/09 07:34:20;;;;;;;7.23;3.87;;;;;;;21.84;100.00;101563.69;7396395;19;20800;-36
2023/07/09 07:36:53;;;;;;;23.87;12.17;;;;;;;21.88;100.00;101573.31;7372981;19;20477;-36
2023/07/09 07:39:22;;;;;;;13.00;6.83;;;;;;;21.91;100.00;101575.97;7396826;19;20408;-36
2023/07/09 07:41:52;;;;;;;10.17;6.03;;;;;;;22.04;100.00;101597.09;7373688;19;20427;-36
2023/07/09 07:44:21;;;;;;;22.13;11.17;;;;;;;22.13;100.00;101607.66;7396589;19;20504;-36
2023/07/09 07:46:51;;;;;;;16.10;8.83;;;;;;;22.17;100.00;101583.16;7374165;19;20463;-36
2023/07/09 07:49:21;;;;;;;12.20;6.07;;;;;;;22.28;100.00;101579.69;7395279;19;20404;-35
2023/07/09 07:51:53;;;;;;;10.83;6.43;;;;;;;22.38;100.00;101585.03;7371409;19;20428;-36
2023/07/09 07:54:22;;;;;;;15.53;9.13;;;;;;;22.45;100.00;101582.44;7393530;19;20427;-36
2023/07/09 07:56:52;;;;;;;7.40;4.80;;;;;;;22.56;100.00;101561.50;7373449;19;20429;-36
2023/07/09 07:59:21;;;;;;;17.50;10.33;;;;;;;22.65;100.00;101556.25;7395428;19;20483;-36
2023/07/09 08:01:51;;;;;;;9.77;5.40;;;;;;;22.74;100.00;101547.53;7373213;19;20455;-36
2023/07/09 08:04:21;;;;;;;20.73;10.40;;;;;;;22.77;100.00;101537.91;7397069;19;20427;-36
2023/07/09 08:06:53;;;;;;;13.63;8.00;;;;;;;22.87;100.00;101524.78;7373342;19;20452;-36
2023/07/09 08:09:23;;;;;;;10.50;5.10;;;;;;;22.95;100.00;101519.53;7398162;19;20425;-36
2023/07/09 08:11:53;;;;;;;15.00;7.77;;;;;;;23.00;100.00;101516.03;7373228;19;20466;-36
2023/07/09 08:14:23;;;;;;;6.57;4.37;;;;;;;23.11;100.00;101515.19;7395668;19;20451;-37
2023/07/09 08:16:52;;;;;;;8.10;4.80;;;;;;;23.19;100.00;101509.03;7375439;19;20507;-36
2023/07/09 08:19:22;;;;;;;13.53;7.57;;;;;;;23.23;100.00;101490.63;7395205;19;20404;-36
2023/07/09 08:21:54;;;;;;;15.93;9.10;;;;;;;23.31;100.00;101479.28;7370519;19;20450;-36
2023/07/09 08:24:24;;;;;;;10.87;6.60;;;;;;;23.38;100.00;101488.03;7395002;19;20431;-36
2023/07/09 08:26:54;;;;;;;12.07;5.07;;;;;;;23.42;100.00;101478.38;7373439;19;20443;-36
2023/07/09 08:29:24;;;;;;;16.83;7.97;;;;;;;23.49;100.00;101469.63;7395666;19;20810;-36
2023/07/09 08:31:53;;;;;;;10.20;5.60;;;;;;;23.61;100.00;101463.44;7373086;19;20475;-36
2023/07/09 08:34:23;;;;;;;9.70;4.50;;;;;;;23.76;100.00;101454.63;7395343;19;20431;-36
2023/07/09 08:36:55;;;;;;;8.20;4.07;;;;;;;23.85;100.00;101441.44;7369710;19;20527;-36
2023/07/09 08:39:25;;;;;;;11.77;6.20;;;;;;;23.92;100.00;101478.28;7396007;19;20396;-37
2023/07/09 08:42:00;;;;;;;23.67;12.17;;;;;;;24.02;100.00;101469.50;7372543;19;20462;-37
2023/07/09 08:45:02;;;;;;;8.47;4.57;;;;;;;24.03;100.00;101442.25;7371269;19;20801;-36
2023/07/09 08:47:37;;;;;;;8.53;4.60;;;;;;;24.13;100.00;101451.03;7394323;19;20439;-36
2023/07/09 08:50:11;;;;;;;31.93;15.77;;;;;;;24.22;100.00;101434.31;7371445;19;20450;-36
2023/07/09 08:52:45;;;;;;;22.70;11.20;;;;;;;24.31;100.00;101429.00;7395451;19;20426;-35
2023/07/09 08:55:22;;;;;;;49.60;25.43;;;;;;;24.36;100.00;101421.94;7368346;19;20833;-36
2023/07/09 08:57:54;;;;;;;8.60;4.87;;;;;;;24.49;100.00;101425.38;7393332;19;20988;-37
2023/07/09 09:00:29;;;;;;;7.50;4.37;;;;;;;24.64;100.00;101420.88;7368411;19;20522;-37
2023/07/09 09:03:02;;;;;;;10.23;5.87;;;;;;;24.76;100.00;101401.47;7384023;19;20432;-36
2023/07/09 09:05:35;;;;;;;11.13;6.70;;;;;;;24.84;100.00;101397.03;7369614;19;20834;-36
2023/07/09 09:08:16;;;;;;;17.27;9.87;;;;;;;24.99;100.00;101393.41;7395332;19;20427;-36
2023/07/09 09:10:50;;;;;;;16.97;8.80;;;;;;;25.08;100.00;101374.84;7367556;19;20835;-36
2023/07/09 09:13:30;;;;;;;9.10;5.27;;;;;;;25.21;100.00;101370.31;7392188;19;20949;-36
2023/07/09 09:16:04;;;;;;;27.27;12.47;;;;;;;25.32;100.00;101361.41;7368334;19;21447;-37
2023/07/09 09:18:40;;;;;;;27.47;14.27;;;;;;;25.35;100.00;101357.00;7393174;19;20479;-36
2023/07/09 09:21:17;;;;;;;9.17;4.90;;;;;;;25.45;100.00;101362.16;7367806;19;20414;-37
2023/07/09 09:23:52;;;;;;;9.70;5.93;;;;;;;25.53;100.00;101354.19;7392768;19;20440;-36
2023/07/09 09:26:26;;;;;;;7.57;5.23;;;;;;;25.66;100.00;101354.91;7368514;19;20427;-37
2023/07/09 09:28:56;;;;;;;8.50;5.07;;;;;;;25.72;100.00;101358.38;7392670;19;20402;-36
2023/07/09 09:31:27;;;;;;;7.17;4.70;;;;;;;25.77;100.00;101331.03;7368536;19;20452;-37
2023/07/09 09:33:57;;;;;;;10.57;4.70;;;;;;;25.87;100.00;101340.56;7394997;19;20784;-36
2023/07/09 09:36:28;;;;;;;27.23;14.47;;;;;;;26.00;100.00;101349.22;7368461;19;20467;-36
2023/07/09 09:39:04;;;;;;;19.50;10.50;;;;;;;26.03;100.00;101346.50;7393330;19;20483;-36
2023/07/09 09:41:37;;;;;;;9.90;4.00;;;;;;;26.10;100.00;101342.03;7365508;19;20894;-37
2023/07/09 09:44:06;;;;;;;10.90;7.17;;;;;;;26.05;100.00;101320.06;7394338;19;20420;-37
2023/07/09 09:46:36;;;;;;;10.10;6.70;;;;;;;26.15;100.00;101319.91;7367795;19;20598;-36
2023/07/09 09:49:06;;;;;;;10.33;5.60;;;;;;;26.21;100.00;101303.09;7394394;19;20407;-36
2023/07/09 09:51:36;;;;;;;7.30;4.87;;;;;;;26.39;100.00;101303.72;7367354;19;20434;-36
2023/07/09 09:54:14;;;;;;;11.23;6.97;;;;;;;26.44;100.00;101307.16;7394115;19;20399;-36
2023/07/09 09:56:45;;;;;;;8.90;5.47;;;;;;;26.50;100.00;101288.53;7368360;19;20893;-37
2023/07/09 09:59:21;;;;;;;11.10;7.27;;;;;;;26.63;100.00;101285.69;7391326;19;20421;-37
2023/07/09 10:01:59;;;;;;;12.90;7.60;;;;;;;26.72;100.00;101285.53;7367404;19;20504;-36
2023/07/09 10:04:30;;;;;;;9.37;5.10;;;;;;;26.79;100.00;101276.59;7366620;19;20442;-36
2023/07/09 10:07:02;;;;;;;9.03;5.17;;;;;;;26.85;100.00;101274.75;7391280;19;20755;-37
2023/07/09 10:09:45;;;;;;;13.57;8.13;;;;;;;27.05;100.00;101293.78;7368557;19;20422;-37
2023/07/09 10:12:19;;;;;;;9.93;6.57;;;;;;;27.14;100.00;101286.56;7390032;19;20411;-37
2023/07/09 10:14:54;;;;;;;12.70;6.10;;;;;;;27.34;100.00;101273.78;7370267;19;21017;-36
2023/07/09 10:17:36;;;;;;;50.50;24.60;;;;;;;27.45;100.00;101254.16;7396444;19;20419;-37
2023/07/09 10:20:19;;;;;;;7.20;4.63;;;;;;;27.52;100.00;101261.06;7372396;19;20506;-37
2023/07/09 10:22:55;;;;;;;21.30;7.30;;;;;;;27.74;100.00;101281.84;7394934;19;20801;-36
2023/07/09 10:25:37;;;;;;;9.67;5.70;;;;;;;27.93;100.00;101276.13;7374013;19;20463;-37
2023/07/09 10:28:33;;;;;;;11.40;7.17;;;;;;;28.09;100.00;101284.59;7398106;19;20785;-37
2023/07/09 10:31:08;;;;;;;13.17;5.37;;;;;;;28.09;100.00;101250.97;7374529;19;20857;-36
2023/07/09 10:33:45;;;;;;;9.53;5.40;;;;;;;28.09;100.00;101231.56;7400384;19;20482;-37
2023/07/09 10:36:26;;;;;;;13.73;8.37;;;;;;;28.24;100.00;101236.50;7373475;19;20518;-37
2023/07/09 10:39:02;;;;;;;8.43;5.73;;;;;;;28.40;100.00;101250.25;7398597;19;20415;-37
2023/07/09 10:41:34;;;;;;;12.10;6.33;;;;;;;28.50;100.00;101250.03;7373559;19;20506;-37
2023/07/09 10:44:11;;;;;;;9.10;4.83;;;;;;;28.60;100.00;101238.25;7397480;19;20426;-36
2023/07/09 10:46:43;;;;;;;8.30;6.03;;;;;;;28.73;100.00;101235.28;7373709;19;20487;-36
2023/07/09 10:49:15;;;;;;;13.43;6.07;;;;;;;28.75;100.00;101228.16;7396399;19;20412;-36
2023/07/09 10:51:49;;;;;;;7.93;5.40;;;;;;;28.83;100.00;101215.53;7373807;19;20463;-36
2023/07/09 10:54:33;;;;;;;7.30;4.70;;;;;;;28.86;100.00;101231.41;7396238;19;20435;-36
2023/07/09 10:57:10;;;;;;;8.17;4.90;;;;;;;29.02;100.00;101241.59;7375623;19;20439;-36
2023/07/09 10:59:43;;;;;;;7.63;5.13;;;;;;;29.17;100.00;101234.97;7373511;19;20419;-37
2023/07/09 11:02:21;;;;;;;9.87;6.53;;;;;;;29.17;99.79;101198.66;7396401;19;20430;-36
2023/07/09 11:04:54;;;;;;;13.53;7.30;;;;;;;29.16;100.00;101212.84;7372255;19;20395;-36
2023/07/09 11:07:29;;;;;;;11.70;7.10;;;;;;;29.07;97.39;101203.38;7398022;19;20403;-36
2023/07/09 11:10:00;;;;;;;7.80;5.13;;;;;;;29.17;100.00;101256.22;7374379;19;20395;-36
2023/07/09 11:12:35;;;;;;;9.93;5.80;;;;;;;29.26;100.00;101263.91;7397128;19;21268;-38
2023/07/09 11:15:09;;;;;;;10.30;5.40;;;;;;;29.35;93.24;101238.88;7373019;19;20769;-37
2023/07/09 11:17:42;;;;;;;10.17;5.00;;;;;;;29.39;91.90;101229.91;7399214;19;20410;-36
2023/07/09 11:20:21;;;;;;;10.80;7.20;;;;;;;29.47;91.75;101248.28;7371276;19;20455;-37
2023/07/09 11:22:56;;;;;;;9.23;5.90;;;;;;;29.60;89.71;101248.78;7393950;19;20487;-37
2023/07/09 11:25:33;;;;;;;10.53;7.30;;;;;;;29.66;93.22;101280.50;7371695;19;20479;-37
2023/07/09 11:28:09;;;;;;;13.63;6.40;;;;;;;29.61;92.26;101282.41;7396400;19;20419;-36
2023/07/09 11:30:52;;;;;;;10.43;6.03;;;;;;;29.74;98.49;101304.19;7371740;19;20514;-36
2023/07/09 11:33:23;;;;;;;15.80;12.03;;;;;;;29.85;91.10;101287.91;7395934;19;20411;-37
2023/07/09 11:35:55;;;;;;;12.37;7.77;;;;;;;29.93;93.68;101285.88;7372901;19;20475;-36